Latest Weather Observations for Fawkner Beacon

IDV60801

Issued at 11:34 am EST Monday 26 September 2016 (issued every 30 minutes, with the page automatically refreshed every 10 minutes)

About weather observations | Map of weather stations | Latest weather observations for VIC | Other Formats
Station Details ID: 086376 Name: FAWKNER BEACON Lat: -37.91 Lon: 144.93 Height: 17.0 m
Data from the previous 72 hours. | See also: Recent months for locations in Victoria
Date/Time
EST
Temp
°C
App
Temp
°C
Dew
Point
°C
Rel
Hum
%
Delta-T
°C
Wind Press
QNH
hPa
Press
MSL
hPa
Rain since
9am
mm
Dir  Spd
km/h
Gust
km/h
Spd
kts
Gust
kts
26/11:30am - - - - - SE 7 9 4 5 - - -
26/11:00am - - - - - W 6 7 3 4 - - -
26/10:30am - - - - - WNW 7 11 4 6 - - -
26/10:00am - - - - - WNW 9 11 5 6 - - -
26/09:30am - - - - - NW 13 15 7 8 - - -
26/09:00am - - - - - N 13 17 7 9 - - -
26/08:30am - - - - - N 15 20 8 11 - - -
26/08:00am - - - - - N 15 20 8 11 - - -
26/07:30am - - - - - N 15 20 8 11 - - -
26/07:00am - - - - - N 17 20 9 11 - - -
26/06:30am - - - - - N 20 24 11 13 - - -
26/06:00am - - - - - N 17 22 9 12 - - -
26/05:30am - - - - - N 19 22 10 12 - - -
26/05:00am - - - - - N 20 24 11 13 - - -
26/04:30am - - - - - N 11 15 6 8 - - -
26/04:00am - - - - - N 13 17 7 9 - - -
26/03:30am - - - - - N 13 15 7 8 - - -
26/03:00am - - - - - NNE 11 13 6 7 - - -
26/02:30am - - - - - NNE 15 17 8 9 - - -
26/02:00am - - - - - NNE 13 17 7 9 - - -
26/01:30am - - - - - NNE 15 20 8 11 - - -
26/01:00am - - - - - NNE 15 17 8 9 - - -
26/12:30am - - - - - NNE 13 15 7 8 - - -
26/12:00am - - - - - NNE 11 13 6 7 - - -
 
Date/Time
EST
Temp
°C
App
Temp
°C
Dew
Point
°C
Rel
Hum
%
Delta-T
°C
Wind Press
QNH
hPa
Press
MSL
hPa
Rain since
9am
mm
Dir  Spd
km/h
Gust
km/h
Spd
kts
Gust
kts
25/11:30pm - - - - - NE 13 17 7 9 - - -
25/11:00pm - - - - - ENE 9 13 5 7 - - -
25/10:30pm - - - - - SE 6 7 3 4 - - -
25/10:00pm - - - - - SE 6 7 3 4 - - -
25/09:30pm - - - - - SSE 9 11 5 6 - - -
25/09:00pm - - - - - SSE 11 15 6 8 - - -
25/08:30pm - - - - - SSE 13 17 7 9 - - -
25/08:00pm - - - - - S 15 20 8 11 - - -
25/07:30pm - - - - - S 15 20 8 11 - - -
25/07:00pm - - - - - S 15 17 8 9 - - -
25/06:30pm - - - - - S 15 20 8 11 - - -
25/06:00pm - - - - - S 15 22 8 12 - - -
25/05:30pm - - - - - S 17 22 9 12 - - -
25/05:00pm - - - - - S 19 26 10 14 - - -
25/04:30pm - - - - - S 13 15 7 8 - - -
25/04:00pm - - - - - S 15 17 8 9 - - -
25/03:30pm - - - - - S 15 20 8 11 - - -
25/03:00pm - - - - - SSE 17 20 9 11 - - -
25/02:30pm - - - - - SSE 20 26 11 14 - - -
25/02:00pm - - - - - SSE 20 26 11 14 - - -
25/01:30pm - - - - - S 26 32 14 17 - - -
25/01:00pm - - - - - WSW 22 28 12 15 - - -
25/12:30pm - - - - - WSW 22 28 12 15 - - -
25/12:00pm - - - - - WSW 32 35 17 19 - - -
25/11:30am - - - - - WSW 32 35 17 19 - - -
25/11:00am - - - - - WSW 30 35 16 19 - - -
25/10:30am - - - - - WSW 30 33 16 18 - - -
25/10:00am - - - - - W 33 41 18 22 - - -
25/09:30am - - - - - W 30 39 16 21 - - -
25/09:00am - - - - - W 30 35 16 19 - - -
25/08:30am - - - - - W 28 33 15 18 - - -
25/08:00am - - - - - W 32 35 17 19 - - -
25/07:30am - - - - - W 39 44 21 24 - - -
25/07:00am - - - - - W 35 43 19 23 - - -
25/06:30am - - - - - W 35 41 19 22 - - -
25/06:00am - - - - - WSW 33 39 18 21 - - -
25/05:30am - - - - - WSW 32 43 17 23 - - -
25/05:00am - - - - - WSW 35 43 19 23 - - -
25/04:30am - - - - - WSW 35 43 19 23 - - -
25/04:00am - - - - - W 32 39 17 21 - - -
25/03:30am - - - - - W 32 35 17 19 - - -
25/03:00am - - - - - WSW 35 44 19 24 - - -
25/02:30am - - - - - WSW 33 43 18 23 - - -
25/02:00am - - - - - W 28 32 15 17 - - -
25/01:30am - - - - - W 24 28 13 15 - - -
25/01:00am - - - - - NW 26 32 14 17 - - -
25/12:30am - - - - - N 22 26 12 14 - - -
25/12:00am - - - - - N 17 22 9 12 - - -
 
Date/Time
EST
Temp
°C
App
Temp
°C
Dew
Point
°C
Rel
Hum
%
Delta-T
°C
Wind Press
QNH
hPa
Press
MSL
hPa
Rain since
9am
mm
Dir  Spd
km/h
Gust
km/h
Spd
kts
Gust
kts
24/11:30pm - - - - - N 13 17 7 9 - - -
24/11:00pm - - - - - NNW 11 15 6 8 - - -
24/10:30pm - - - - - NW 15 20 8 11 - - -
24/10:00pm - - - - - NNW 20 26 11 14 - - -
24/09:30pm - - - - - N 24 28 13 15 - - -
24/09:00pm - - - - - N 20 24 11 13 - - -
24/08:30pm - - - - - NNW 20 26 11 14 - - -
24/08:00pm - - - - - NNW 28 33 15 18 - - -
24/07:30pm - - - - - N 33 41 18 22 - - -
24/07:00pm - - - - - NNW 32 43 17 23 - - -
24/06:30pm - - - - - NNW 37 44 20 24 - - -
24/06:00pm - - - - - N 35 44 19 24 - - -
24/05:30pm - - - - - N 33 43 18 23 - - -
24/05:00pm - - - - - N 39 44 21 24 - - -
24/04:30pm - - - - - N 41 48 22 26 - - -
24/04:00pm - - - - - N 43 52 23 28 - - -
24/03:30pm - - - - - N 44 50 24 27 - - -
24/03:00pm - - - - - N 44 52 24 28 - - -
24/02:30pm - - - - - N 44 54 24 29 - - -
24/02:00pm - - - - - N 43 50 23 27 - - -
24/01:49pm - - - - - N 39 59 21 32 - - -
24/01:30pm - - - - - N 43 48 23 26 - - -
24/01:00pm - - - - - N 39 46 21 25 - - -
24/12:30pm - - - - - N 39 48 21 26 - - -
24/12:00pm - - - - - N 39 50 21 27 - - -
24/11:30am - - - - - N 35 43 19 23 - - -
24/11:00am - - - - - N 39 46 21 25 - - -
24/10:30am - - - - - N 43 50 23 27 - - -
24/10:00am - - - - - N 35 43 19 23 - - -
24/09:30am - - - - - N 32 39 17 21 - - -
24/09:00am - - - - - N 26 32 14 17 - - -
24/08:30am - - - - - N 24 28 13 15 - - -
24/08:00am - - - - - N 28 33 15 18 - - -
24/07:30am - - - - - N 20 24 11 13 - - -
24/07:00am - - - - - N 22 26 12 14 - - -
24/06:30am - - - - - N 22 26 12 14 - - -
24/06:00am - - - - - N 20 22 11 12 - - -
24/05:30am - - - - - NNE 15 20 8 11 - - -
24/05:00am - - - - - N 22 26 12 14 - - -
24/04:30am - - - - - N 11 15 6 8 - - -
24/04:00am - - - - - N 11 13 6 7 - - -
24/03:30am - - - - - NE 9 13 5 7 - - -
24/03:00am - - - - - NE 13 15 7 8 - - -
24/02:30am - - - - - NNE 15 17 8 9 - - -
24/02:00am - - - - - N 4 6 2 3 - - -
24/01:30am - - - - - WNW 2 6 1 3 - - -
24/01:00am - - - - - WNW 15 17 8 9 - - -
24/12:30am - - - - - WNW 11 15 6 8 - - -
24/12:00am - - - - - N 6 7 3 4 - - -
 
Date/Time
EST
Temp
°C
App
Temp
°C
Dew
Point
°C
Rel
Hum
%
Delta-T
°C
Wind Press
QNH
hPa
Press
MSL
hPa
Rain since
9am
mm
Dir  Spd
km/h
Gust
km/h
Spd
kts
Gust
kts
23/11:30pm - - - - - N 6 9 3 5 - - -
23/11:00pm - - - - - NE 9 9 5 5 - - -
23/10:30pm - - - - - NNE 11 11 6 6 - - -
23/10:00pm - - - - - NNE 13 13 7 7 - - -
23/09:30pm - - - - - NNE 9 13 5 7 - - -
23/09:00pm - - - - - E 15 20 8 11 - - -
23/08:30pm - - - - - ESE 15 20 8 11 - - -
23/08:00pm - - - - - SE 19 22 10 12 - - -
23/07:30pm - - - - - SE 22 26 12 14 - - -
23/07:00pm - - - - - SSE 22 26 12 14 - - -
23/06:30pm - - - - - SSE 20 22 11 12 - - -
23/06:00pm - - - - - SSE 19 22 10 12 - - -
23/05:30pm - - - - - SSE 19 22 10 12 - - -
23/05:00pm - - - - - S 20 24 11 13 - - -
23/04:30pm - - - - - SW 11 13 6 7 - - -
23/04:00pm - - - - - SSW 11 13 6 7 - - -
23/03:30pm - - - - - SSW 13 15 7 8 - - -
23/03:00pm - - - - - SSW 15 17 8 9 - - -
23/02:30pm - - - - - SSW 15 17 8 9 - - -
23/02:00pm - - - - - SSW 15 17 8 9 - - -
23/01:30pm - - - - - SSW 15 17 8 9 - - -
23/01:00pm - - - - - SSW 13 15 7 8 - - -
23/12:30pm - - - - - SSW 13 15 7 8 - - -
23/12:00pm - - - - - SSW 13 15 7 8 - - -

Other Formats:

Comma delimited format used in spreadsheet applications
http://www.bom.gov.au/fwo/IDV60801/IDV60801.95872.axf

JavaScript Object Notation format (JSON) in row-major order
http://www.bom.gov.au/fwo/IDV60801/IDV60801.95872.json